WIMM

Medan / Polonia International Airport

Medan-Sumatra Island, Indonesia
TAF WIMM 192300Z 2000/2100 VRB05KT 5000 HZ BKN020 BECMG 2004/2006 05010KT 9999 SCT018 BECMG 2010/2012 VRB03KT 6000
Issued Valid From Valid To
Sep-19 @ 23:00 UTC
(2 hours ago)
Sep-20 @ 00:00 UTC
(42 minutes ago)
Sep-21 @ 00:00 UTC
(in 23 hours)
Sep-20 @ 00:00 to Sep-20 @ 04:00
TAF WIMM 192300Z 2000/2100 VRB05KT 5000 HZ BKN020
Wind Visibility Clouds Conditions
Variable at 5 knots 5,005 meters
  • Broken at 2,000' AGL
  • Haze
Becoming Sep-20 @ 04:00 to Sep-20 @ 10:00
BECMG 2004/2006 05010KT 9999 SCT018
Wind Visibility Clouds Conditions
50° at 10 knots 10,000+ meters
  • Scattered at 1,800' AGL
  • Haze
Becoming Sep-20 @ 10:00 to Sep-21 @ 00:00
BECMG 2010/2012 VRB03KT 6000
Wind Visibility Clouds Conditions
Variable at 3 knots 6,003 meters
  • Scattered at 1,800' AGL
  • Haze
TAF WIMM 192300Z 2000/2100 VRB05KT 5000 HZ BKN020 BECMG 2004/2006 05010KT 9999 SCT018 BECMG 2010/2012 VRB03KT 6000
Issued Sep-19 @ 23:00 UTC
(2 hours ago)
Valid From Sep-20 @ 00:00 UTC
(42 minutes ago)
Valid To Sep-21 @ 00:00 UTC
(in 23 hours)
Sep-20 @ 00:00 - Sep-20 @ 04:00
Wind Visibility
Variable at 5 knots 5,005 meters
Clouds
  • Broken at 2,000' AGL
Conditions
  • Haze
Becoming Sep-20 @ 04:00 - Sep-20 @ 10:00
Wind Visibility
50° at 10 knots 10,000+ meters
Clouds
  • Scattered at 1,800' AGL
Conditions
  • Haze
Becoming Sep-20 @ 10:00 - Sep-21 @ 00:00
Wind Visibility
Variable at 3 knots 6,003 meters
Clouds
  • Scattered at 1,800' AGL
Conditions
  • Haze